Time;durP1;ratioP1;P1;durP2;ratioP2;P2;SDS_P1;SDS_P2;PMS_P1;PMS_P2;Temp;Humidity;BMP_temperature;BMP_pressure;BME280_temperature;BME280_humidity;BME280_pressure;Samples;Min_cycle;Max_cycle;Signal;HPM_P1;HPM_P2
2021/12/08 00:00:53;;;;;;;4.77;2.90;;;5.10;68.70;;;;;;5118438;28;20477;-46
2021/12/08 00:03:20;;;;;;;4.17;2.80;;;5.10;68.70;;;;;;5118905;28;20434;-46
2021/12/08 00:05:46;;;;;;;4.37;2.57;;;5.10;68.60;;;;;;5119047;28;20828;-46
2021/12/08 00:08:15;;;;;;;4.07;3.00;;;5.10;68.50;;;;;;5118159;28;20875;-47
2021/12/08 00:13:24;;;;;;;4.60;2.97;;;5.10;68.50;;;;;;5118508;28;20710;-46
2021/12/08 00:15:53;;;;;;;4.13;3.03;;;5.10;68.70;;;;;;5118325;28;20414;-46
2021/12/08 00:18:24;;;;;;;3.53;3.00;;;5.10;69.00;;;;;;5118408;28;20768;-46
2021/12/08 00:20:53;;;;;;;4.53;3.50;;;5.00;69.20;;;;;;5119221;28;20815;-46
2021/12/08 00:23:20;;;;;;;4.33;2.73;;;5.00;69.50;;;;;;5119396;28;20426;-44
2021/12/08 00:25:46;;;;;;;3.87;3.00;;;5.00;69.80;;;;;;5119264;28;20414;-46
2021/12/08 00:28:12;;;;;;;3.13;2.60;;;5.00;70.10;;;;;;5118791;28;20781;-46
2021/12/08 00:30:47;;;;;;;3.87;2.60;;;5.00;70.00;;;;;;5118855;28;20406;-45
2021/12/08 00:33:14;;;;;;;4.93;3.00;;;5.00;70.10;;;;;;5118964;28;20460;-45
2021/12/08 00:35:45;;;;;;;2.83;2.60;;;5.10;70.10;;;;;;5110444;28;20712;-46
2021/12/08 00:38:11;;;;;;;3.30;2.53;;;5.10;70.20;;;;;;5110329;28;21125;-45
2021/12/08 00:40:37;;;;;;;2.97;2.67;;;5.10;70.30;;;;;;5106412;28;20833;-45
2021/12/08 00:43:03;;;;;;;3.87;2.80;;;5.10;70.40;;;;;;5097669;28;20430;-46
2021/12/08 00:45:29;;;;;;;4.17;3.27;;;5.10;70.60;;;;;;5098132;28;20263;-46
2021/12/08 00:47:56;;;;;;;4.00;2.80;;;5.10;70.80;;;;;;5098053;28;20469;-46
2021/12/08 00:50:24;;;;;;;3.80;2.73;;;5.10;71.10;;;;;;5103637;28;20275;-46
2021/12/08 00:52:51;;;;;;;6.30;3.80;;;5.10;71.30;;;;;;5116412;28;20437;-46
2021/12/08 00:55:18;;;;;;;3.50;2.67;;;5.10;71.60;;;;;;5114628;28;20754;-46
2021/12/08 00:57:44;;;;;;;3.60;2.97;;;5.10;72.10;;;;;;5116802;28;20505;-45
2021/12/08 01:00:32;;;;;;;3.13;1.50;;;5.10;72.60;;;;;;5107708;27;20852;-45
2021/12/08 01:02:59;;;;;;;2.37;1.80;;;6.40;99.90;;;;;;5109659;28;20437;-45
2021/12/08 01:05:28;;;;;;;3.73;1.90;;;7.70;99.90;;;;;;5110183;28;20677;-45
2021/12/08 01:07:54;;;;;;;3.20;1.80;;;8.80;99.90;;;;;;5110325;28;20532;-45
2021/12/08 01:10:22;;;;;;;3.50;2.40;;;9.30;99.90;;;;;;5111047;28;20619;-46
2021/12/08 01:12:48;;;;;;;2.37;2.17;;;9.40;97.50;;;;;;5109593;28;20497;-46
2021/12/08 01:15:14;;;;;;;4.67;2.63;;;9.30;93.60;;;;;;5109657;28;20446;-46
2021/12/08 01:17:40;;;;;;;3.17;2.47;;;9.00;90.90;;;;;;5108638;28;21134;-45
2021/12/08 01:20:08;;;;;;;3.10;2.70;;;8.60;88.90;;;;;;5110293;28;20442;-46
2021/12/08 01:22:34;;;;;;;2.47;2.00;;;8.20;86.80;;;;;;5111061;28;20437;-46
2021/12/08 01:25:00;;;;;;;3.67;2.30;;;7.80;85.00;;;;;;5119032;28;20418;-45
2021/12/08 01:27:25;;;;;;;3.37;2.73;;;7.50;83.90;;;;;;5122599;28;20191;-46
2021/12/08 01:29:51;;;;;;;2.80;2.10;;;7.10;83.00;;;;;;5121487;28;20234;-44
2021/12/08 01:32:19;;;;;;;3.60;2.97;;;6.90;82.50;;;;;;5121661;28;20206;-44
2021/12/08 01:34:44;;;;;;;3.50;2.90;;;6.70;82.20;;;;;;5121310;28;20176;-43
2021/12/08 01:37:10;;;;;;;3.97;2.50;;;6.50;82.00;;;;;;5121157;28;20418;-44
2021/12/08 01:39:36;;;;;;;5.13;3.17;;;6.30;82.00;;;;;;5121211;27;20195;-44
2021/12/08 01:42:02;;;;;;;4.80;3.03;;;6.10;82.20;;;;;;5120971;28;20720;-45
2021/12/08 01:47:12;;;;;;;3.93;3.50;;;5.90;82.70;;;;;;5120165;28;20417;-45
2021/12/08 01:49:37;;;;;;;4.23;3.27;;;5.80;83.10;;;;;;5120855;28;20873;-45
2021/12/08 01:52:03;;;;;;;4.77;3.27;;;5.70;83.20;;;;;;5120072;28;20183;-45
2021/12/08 01:54:29;;;;;;;5.03;3.10;;;5.70;83.60;;;;;;5121060;28;20297;-45
2021/12/08 01:56:57;;;;;;;3.90;3.30;;;5.60;83.90;;;;;;5120767;28;20429;-45
2021/12/08 01:59:23;;;;;;;4.80;3.10;;;5.60;84.10;;;;;;5119146;28;20188;-45
2021/12/08 02:01:48;;;;;;;4.20;3.13;;;5.60;84.30;;;;;;5119123;28;20438;-44
2021/12/08 02:04:14;;;;;;;4.40;3.10;;;5.50;84.40;;;;;;5119260;28;20449;-45
2021/12/08 02:06:45;;;;;;;3.33;2.77;;;5.50;84.50;;;;;;5119665;28;20549;-45
2021/12/08 02:09:14;;;;;;;2.93;2.20;;;5.50;84.70;;;;;;5118924;28;20473;-45
2021/12/08 02:11:44;;;;;;;3.00;2.40;;;5.50;84.90;;;;;;5118263;28;20516;-45
2021/12/08 02:14:10;;;;;;;3.60;2.53;;;5.40;84.90;;;;;;5115588;28;20426;-45
2021/12/08 02:16:36;;;;;;;4.17;2.87;;;5.50;85.10;;;;;;5121212;28;20425;-45
2021/12/08 02:19:02;;;;;;;3.10;2.60;;;5.40;85.10;;;;;;5120590;27;20200;-44
2021/12/08 02:21:31;;;;;;;5.00;3.10;;;5.40;85.20;;;;;;5121011;28;20417;-44
2021/12/08 02:24:00;;;;;;;4.73;3.50;;;5.40;85.30;;;;;;5120912;28;20430;-45
2021/12/08 02:26:27;;;;;;;3.23;2.40;;;5.40;85.40;;;;;;5120782;28;20504;-45
2021/12/08 02:28:53;;;;;;;3.97;2.97;;;5.40;85.50;;;;;;5120801;28;20489;-45
2021/12/08 02:31:28;;;;;;;4.43;2.67;;;5.40;85.60;;;;;;5120483;28;20479;-45
2021/12/08 02:50:18;;;;;;;3.67;2.70;;;5.40;86.30;;;;;;5120140;28;20465;-45
2021/12/08 02:52:44;;;;;;;2.67;2.30;;;5.40;86.40;;;;;;5120559;28;20440;-45
2021/12/08 02:55:10;;;;;;;2.87;2.50;;;5.40;86.60;;;;;;5118838;28;20943;-45
2021/12/08 02:57:36;;;;;;;4.20;2.30;;;5.40;86.80;;;;;;5120194;28;20437;-45
2021/12/08 03:00:06;;;;;;;3.03;2.73;;;5.40;86.90;;;;;;5120387;28;20424;-45
2021/12/08 03:02:32;;;;;;;3.80;2.60;;;5.50;87.20;;;;;;5119188;28;20445;-45
2021/12/08 03:04:57;;;;;;;3.53;2.60;;;5.50;87.30;;;;;;5117582;28;20418;-44
2021/12/08 03:07:23;;;;;;;3.17;2.50;;;5.50;87.50;;;;;;5118287;28;20282;-45
2021/12/08 03:09:49;;;;;;;4.77;3.10;;;5.50;87.60;;;;;;5118078;28;20208;-46
2021/12/08 03:12:14;;;;;;;4.73;3.23;;;5.50;87.80;;;;;;5119053;28;20195;-44
2021/12/08 03:14:40;;;;;;;3.37;2.43;;;5.50;87.90;;;;;;5118150;28;20180;-45
2021/12/08 03:17:08;;;;;;;3.03;2.67;;;5.50;88.10;;;;;;5119652;28;20183;-45
2021/12/08 03:19:34;;;;;;;3.70;3.27;;;5.50;88.40;;;;;;5120360;28;20176;-45
2021/12/08 03:22:02;;;;;;;3.67;2.67;;;5.50;88.70;;;;;;5119383;28;20528;-44
2021/12/08 03:24:32;;;;;;;4.40;3.33;;;5.40;89.00;;;;;;5119572;28;20297;-45
2021/12/08 03:32:16;;;;;;;3.53;3.17;;;5.50;90.10;;;;;;5119673;28;20414;-45
2021/12/08 03:34:51;;;;;;;3.77;3.13;;;5.50;90.30;;;;;;5119036;28;20723;-44
2021/12/08 03:37:18;;;;;;;3.70;3.23;;;5.50;90.40;;;;;;5119118;28;21413;-45
2021/12/08 03:39:44;;;;;;;3.20;2.83;;;5.50;90.60;;;;;;5118477;28;20413;-45
2021/12/08 03:42:10;;;;;;;5.00;3.37;;;5.50;90.80;;;;;;5118720;28;20421;-45
2021/12/08 03:44:37;;;;;;;5.73;3.13;;;5.50;91.00;;;;;;5118723;28;20410;-45
2021/12/08 03:47:12;;;;;;;3.17;2.87;;;5.50;91.20;;;;;;5119219;27;20171;-45
2021/12/08 03:49:37;;;;;;;4.80;3.27;;;5.50;91.30;;;;;;5118204;28;20820;-44
2021/12/08 03:52:04;;;;;;;3.63;2.80;;;5.50;91.50;;;;;;5118845;28;20430;-45
2021/12/08 03:54:29;;;;;;;3.90;3.60;;;5.50;91.70;;;;;;5117688;28;20239;-45
2021/12/08 03:56:55;;;;;;;4.00;3.50;;;5.50;91.70;;;;;;5117658;28;20425;-44
2021/12/08 03:59:21;;;;;;;5.83;4.20;;;5.50;91.80;;;;;;5117730;28;20187;-45
2021/12/08 04:01:46;;;;;;;5.70;3.93;;;5.50;91.90;;;;;;5117718;28;20421;-44
2021/12/08 04:04:13;;;;;;;4.30;3.50;;;5.60;92.10;;;;;;5116925;28;20199;-45
2021/12/08 04:06:45;;;;;;;5.90;3.43;;;5.50;92.10;;;;;;5118630;28;20176;-44
2021/12/08 04:09:19;;;;;;;4.30;3.53;;;5.60;92.30;;;;;;5118587;28;20500;-44
2021/12/08 04:11:46;;;;;;;5.20;3.20;;;5.50;92.30;;;;;;5118757;28;20405;-44
2021/12/08 04:14:15;;;;;;;5.03;4.23;;;5.50;92.50;;;;;;5118723;28;20422;-44
2021/12/08 04:16:58;;;;;;;4.37;3.60;;;5.60;92.60;;;;;;5119415;28;20501;-44
2021/12/08 04:19:25;;;;;;;5.53;4.57;;;5.60;92.80;;;;;;5118676;28;20421;-45
2021/12/08 04:21:54;;;;;;;3.93;3.53;;;5.60;93.00;;;;;;5117016;28;20422;-45
2021/12/08 04:24:20;;;;;;;5.00;3.50;;;5.60;93.10;;;;;;5115849;28;20456;-44
2021/12/08 04:26:51;;;;;;;4.77;4.00;;;5.60;93.10;;;;;;5116540;28;20406;-44
2021/12/08 04:29:19;;;;;;;4.63;4.10;;;5.50;93.30;;;;;;5116650;28;20487;-45
2021/12/08 04:31:46;;;;;;;5.33;4.30;;;5.60;93.40;;;;;;5116670;28;20406;-44
2021/12/08 04:34:18;;;;;;;5.33;4.80;;;5.50;93.60;;;;;;5116378;28;20462;-45
2021/12/08 04:36:47;;;;;;;4.80;4.40;;;5.50;93.70;;;;;;5118125;28;20518;-45
2021/12/08 04:39:21;;;;;;;4.80;4.40;;;5.50;93.80;;;;;;5117276;28;20433;-45
2021/12/08 04:41:53;;;;;;;4.60;4.10;;;5.60;94.10;;;;;;5117374;28;20500;-45
2021/12/08 04:44:37;;;;;;;4.50;3.90;;;5.60;94.30;;;;;;5117406;28;20441;-45
2021/12/08 05:08:41;;;;;;;4.83;4.10;;;5.70;95.10;;;;;;5118263;28;20464;-47
2021/12/08 05:11:24;;;;;;;4.90;4.50;;;5.70;94.70;;;;;;5118016;28;20444;-47
2021/12/08 05:13:55;;;;;;;4.90;4.40;;;5.80;94.70;;;;;;5118278;28;20437;-47
2021/12/08 05:16:22;;;;;;;5.43;4.23;;;5.80;94.60;;;;;;5118761;28;20866;-47
2021/12/08 05:18:50;;;;;;;4.80;4.30;;;5.80;94.50;;;;;;5118578;28;20528;-48
2021/12/08 05:21:22;;;;;;;4.77;4.37;;;5.90;94.40;;;;;;5118356;28;20885;-48
2021/12/08 05:23:58;;;;;;;4.87;4.40;;;5.90;94.30;;;;;;5114914;28;20433;-48
2021/12/08 05:26:31;;;;;;;5.23;4.00;;;5.90;94.20;;;;;;5118131;28;20449;-48
2021/12/08 05:29:01;;;;;;;5.50;4.50;;;5.90;94.20;;;;;;5117142;28;20575;-47
2021/12/08 05:31:29;;;;;;;4.80;4.30;;;5.90;94.20;;;;;;5106655;28;20542;-48
2021/12/08 05:33:55;;;;;;;5.00;4.60;;;5.90;94.20;;;;;;5102120;28;20833;-48
2021/12/08 05:36:22;;;;;;;5.77;4.37;;;5.90;94.20;;;;;;5106362;28;20434;-48
2021/12/08 05:38:49;;;;;;;4.87;4.47;;;6.00;94.30;;;;;;5101005;28;20536;-47
2021/12/08 05:41:19;;;;;;;4.83;4.43;;;5.90;94.30;;;;;;5101442;28;20803;-48
2021/12/08 05:43:46;;;;;;;5.23;4.70;;;5.90;94.40;;;;;;5100083;28;20461;-48
2021/12/08 05:46:13;;;;;;;6.57;5.67;;;5.90;94.50;;;;;;5113436;28;20423;-48
2021/12/08 05:48:40;;;;;;;6.50;5.20;;;5.90;94.50;;;;;;5107055;28;20478;-48
2021/12/08 05:51:25;;;;;;;5.90;5.30;;;5.90;94.50;;;;;;5110569;28;20421;-48
2021/12/08 05:53:54;;;;;;;6.33;5.50;;;5.80;94.50;;;;;;5108189;28;20571;-48
2021/12/08 05:56:21;;;;;;;5.17;4.67;;;5.80;94.60;;;;;;5108713;28;20425;-48
2021/12/08 05:58:48;;;;;;;5.87;5.27;;;5.90;94.70;;;;;;5108241;28;20461;-48
2021/12/08 06:01:17;;;;;;;5.27;4.77;;;5.80;94.70;;;;;;5109541;28;20452;-48
2021/12/08 06:03:43;;;;;;;6.10;4.90;;;5.90;94.60;;;;;;5099840;28;20848;-48
2021/12/08 06:06:09;;;;;;;5.13;4.63;;;5.90;94.60;;;;;;5099201;28;20418;-47
2021/12/08 06:08:35;;;;;;;5.53;5.00;;;5.90;94.50;;;;;;5099181;28;20487;-48
2021/12/08 06:11:02;;;;;;;4.77;4.37;;;5.90;94.90;;;;;;5099554;28;21014;-48
2021/12/08 06:13:28;;;;;;;4.83;4.40;;;5.90;94.50;;;;;;5096699;28;20177;-47
2021/12/08 06:15:54;;;;;;;4.53;4.00;;;5.90;94.50;;;;;;5096321;28;20506;-48
2021/12/08 06:18:22;;;;;;;4.80;4.30;;;5.90;94.50;;;;;;5095674;28;20460;-48
2021/12/08 06:20:50;;;;;;;5.10;4.60;;;5.90;94.50;;;;;;5097046;28;20477;-49
2021/12/08 06:23:16;;;;;;;4.73;4.30;;;5.90;94.70;;;;;;5096630;28;20733;-48
2021/12/08 06:25:42;;;;;;;5.07;4.67;;;5.90;94.30;;;;;;5096129;28;20433;-47
2021/12/08 06:28:08;;;;;;;4.57;4.17;;;5.90;94.30;;;;;;5096708;28;20191;-47
2021/12/08 06:30:37;;;;;;;5.30;4.60;;;6.00;94.20;;;;;;5111120;28;20241;-48
2021/12/08 06:33:03;;;;;;;4.73;4.30;;;6.00;94.20;;;;;;5116354;28;20449;-47
2021/12/08 06:35:36;;;;;;;6.60;5.80;;;6.00;94.40;;;;;;5115257;28;20485;-48
2021/12/08 06:38:02;;;;;;;5.50;5.00;;;5.90;94.50;;;;;;5117743;28;20418;-47
2021/12/08 06:40:42;;;;;;;5.20;4.53;;;5.90;94.60;;;;;;5117298;28;20485;-48
2021/12/08 06:43:10;;;;;;;4.83;4.43;;;6.00;94.80;;;;;;5113170;28;20440;-48
2021/12/08 06:45:42;;;;;;;4.70;4.30;;;5.90;94.70;;;;;;5115136;28;20401;-48
2021/12/08 06:48:10;;;;;;;5.00;4.50;;;5.90;94.70;;;;;;5116637;28;20498;-48
2021/12/08 06:50:59;;;;;;;5.03;4.57;;;5.90;94.80;;;;;;5114157;28;20473;-48
2021/12/08 06:53:26;;;;;;;5.23;4.73;;;5.90;94.80;;;;;;5115985;28;20426;-48
2021/12/08 06:55:59;;;;;;;4.43;4.03;;;5.90;94.80;;;;;;5113185;28;20569;-48
2021/12/08 06:58:28;;;;;;;5.63;4.77;;;5.90;94.90;;;;;;5115836;28;20421;-48
2021/12/08 07:03:39;;;;;;;4.00;3.70;;;5.90;94.90;;;;;;5115278;28;20513;-48
2021/12/08 07:06:12;;;;;;;4.13;3.73;;;5.90;94.80;;;;;;5113938;28;20422;-48
2021/12/08 07:08:51;;;;;;;4.23;3.87;;;6.00;94.80;;;;;;5116450;28;20887;-47
2021/12/08 07:11:20;;;;;;;4.57;4.10;;;6.00;95.10;;;;;;5117090;28;20417;-47
2021/12/08 07:13:47;;;;;;;3.90;3.50;;;6.00;94.70;;;;;;5117400;28;20425;-47
2021/12/08 07:16:20;;;;;;;4.17;3.77;;;6.00;94.70;;;;;;5117130;28;20426;-39
2021/12/08 07:18:54;;;;;;;4.03;3.63;;;6.00;94.60;;;;;;5108296;28;20422;-41
2021/12/08 07:21:29;;;;;;;3.83;3.40;;;6.10;94.60;;;;;;5096167;28;20410;-41
2021/12/08 07:24:03;;;;;;;4.50;4.00;;;6.10;94.60;;;;;;5096870;28;20461;-41
2021/12/08 07:26:32;;;;;;;4.53;4.00;;;6.10;94.50;;;;;;5096197;28;20418;-42
2021/12/08 07:29:00;;;;;;;4.70;3.73;;;6.10;94.50;;;;;;5096040;28;20471;-40
2021/12/08 07:31:30;;;;;;;4.10;3.70;;;6.10;94.40;;;;;;5098381;28;20415;-41
2021/12/08 07:34:03;;;;;;;3.50;3.20;;;6.10;94.40;;;;;;5097181;28;20481;-41
2021/12/08 07:36:29;;;;;;;3.67;3.37;;;6.10;94.30;;;;;;5098202;28;20415;-41
2021/12/08 07:38:59;;;;;;;4.10;3.70;;;6.10;94.30;;;;;;5097357;28;20437;-41
2021/12/08 07:41:31;;;;;;;4.40;3.57;;;6.10;94.30;;;;;;5096962;28;20471;-41
2021/12/08 07:43:59;;;;;;;4.30;3.43;;;6.10;94.30;;;;;;5096923;28;20453;-44
2021/12/08 07:46:35;;;;;;;4.43;4.03;;;6.20;94.40;;;;;;5097945;28;20436;-42
2021/12/08 07:49:11;;;;;;;3.77;3.37;;;6.20;94.30;;;;;;5116667;28;20521;-41
2021/12/08 07:51:44;;;;;;;5.20;4.70;;;6.20;94.40;;;;;;5115633;28;20839;-43
2021/12/08 07:54:11;;;;;;;5.13;2.00;;;6.20;96.10;;;;;;5115356;28;20458;-44
2021/12/08 07:56:39;;;;;;;5.70;1.80;;;9.70;99.90;;;;;;5115831;28;20514;-44
2021/12/08 07:59:08;;;;;;;2.40;1.70;;;11.70;99.90;;;;;;5116615;28;20535;-43
2021/12/08 08:01:42;;;;;;;3.00;2.27;;;12.30;95.50;;;;;;5117798;28;20435;-41
2021/12/08 08:04:11;;;;;;;3.40;3.10;;;12.00;94.50;;;;;;5117994;28;20711;-44
2021/12/08 08:06:41;;;;;;;3.40;3.10;;;11.50;93.70;;;;;;5117773;28;20418;-43
2021/12/08 08:09:14;;;;;;;3.70;3.40;;;10.90;92.70;;;;;;5117394;28;20493;-41
2021/12/08 08:11:43;;;;;;;4.57;4.17;;;10.30;92.10;;;;;;5116917;28;20414;-42
2021/12/08 08:14:11;;;;;;;7.10;5.20;;;9.80;92.30;;;;;;5115993;28;20484;-42
2021/12/08 08:16:39;;;;;;;4.73;3.70;;;9.30;92.20;;;;;;5107757;28;20425;-43
2021/12/08 08:19:11;;;;;;;5.30;4.70;;;8.90;92.20;;;;;;5096563;28;20835;-43
2021/12/08 08:21:46;;;;;;;3.93;3.63;;;8.60;92.30;;;;;;5096720;28;20410;-43
2021/12/08 08:24:12;;;;;;;5.27;4.10;;;8.40;92.40;;;;;;5112897;28;20655;-42
2021/12/08 08:26:39;;;;;;;5.10;4.60;;;8.10;92.50;;;;;;5116029;28;20442;-43
2021/12/08 08:29:06;;;;;;;5.10;4.60;;;7.90;92.70;;;;;;5114210;28;20816;-43
2021/12/08 08:31:41;;;;;;;4.73;4.33;;;7.70;92.80;;;;;;5095716;28;20707;-44
2021/12/08 08:34:08;;;;;;;6.10;5.60;;;7.60;92.90;;;;;;5110773;28;20428;-42
2021/12/08 08:36:37;;;;;;;4.77;4.37;;;7.50;93.00;;;;;;5117089;28;20438;-42
2021/12/08 08:39:28;;;;;;;5.40;4.90;;;7.40;93.10;;;;;;5116092;28;20493;-42
2021/12/08 08:42:15;;;;;;;6.27;5.23;;;7.30;93.30;;;;;;5113652;28;20433;-42
2021/12/08 08:44:48;;;;;;;5.80;5.17;;;7.10;93.40;;;;;;5114392;28;20474;-43
2021/12/08 08:47:22;;;;;;;5.80;5.20;;;7.10;93.50;;;;;;5114028;28;20410;-43
2021/12/08 08:49:50;;;;;;;5.77;5.27;;;7.00;93.70;;;;;;5114703;28;21072;-41
2021/12/08 08:52:27;;;;;;;6.80;6.00;;;7.00;93.80;;;;;;5114781;28;20554;-42
2021/12/08 08:54:54;;;;;;;5.60;5.10;;;7.00;93.80;;;;;;5116030;28;20834;-41
2021/12/08 08:57:24;;;;;;;6.13;5.53;;;6.90;93.90;;;;;;5115127;28;20500;-43
2021/12/08 09:00:00;;;;;;;6.43;5.60;;;6.90;93.90;;;;;;5115632;28;20429;-43
2021/12/08 09:02:37;;;;;;;6.47;5.70;;;6.90;93.90;;;;;;5115289;28;20422;-42
2021/12/08 09:05:11;;;;;;;5.90;5.20;;;6.90;93.90;;;;;;5115351;28;20493;-41
2021/12/08 09:07:40;;;;;;;5.80;5.30;;;6.90;93.90;;;;;;5116027;28;20425;-43
2021/12/08 09:10:18;;;;;;;6.70;6.10;;;6.90;93.90;;;;;;5116925;28;20507;-43
2021/12/08 09:12:49;;;;;;;6.70;5.67;;;6.90;93.90;;;;;;5120860;28;20820;-42
2021/12/08 09:15:30;;;;;;;5.47;4.97;;;6.90;93.90;;;;;;5120165;28;20421;-43
2021/12/08 09:18:04;;;;;;;5.73;5.23;;;6.90;93.80;;;;;;5120519;28;20421;-42
2021/12/08 09:20:54;;;;;;;5.87;5.37;;;6.90;93.80;;;;;;5120447;28;20421;-42
2021/12/08 09:23:48;;;;;;;4.83;4.37;;;7.00;93.90;;;;;;5119694;28;20460;-41
2021/12/08 09:26:16;;;;;;;4.50;4.10;;;7.00;93.90;;;;;;5116283;28;20413;-41
2021/12/08 09:28:47;;;;;;;4.63;4.20;;;7.00;93.80;;;;;;5120369;28;20476;-41
2021/12/08 09:31:41;;;;;;;4.27;3.87;;;7.00;93.70;;;;;;5120528;28;20410;-40
2021/12/08 09:34:21;;;;;;;6.30;4.80;;;7.10;94.20;;;;;;5118617;28;20431;-43
2021/12/08 09:36:59;;;;;;;5.33;4.60;;;7.10;94.10;;;;;;5121280;28;20437;-39
2021/12/08 09:39:36;;;;;;;3.87;3.47;;;7.20;93.90;;;;;;5121087;28;20895;-40
2021/12/08 09:42:22;;;;;;;4.40;4.00;;;7.20;93.80;;;;;;5119893;28;20424;-40
2021/12/08 09:44:57;;;;;;;4.83;4.37;;;7.20;93.70;;;;;;5118801;28;20441;-39
2021/12/08 09:47:29;;;;;;;4.90;4.50;;;7.30;93.70;;;;;;5118739;28;20521;-42
2021/12/08 09:49:56;;;;;;;4.60;4.13;;;7.30;93.60;;;;;;5119009;28;20785;-43
2021/12/08 09:52:22;;;;;;;4.63;3.60;;;7.30;93.40;;;;;;5119310;28;20422;-40
2021/12/08 09:54:48;;;;;;;4.40;4.00;;;7.30;93.40;;;;;;5118689;28;20462;-41
2021/12/08 09:57:15;;;;;;;4.13;3.70;;;7.30;93.30;;;;;;5117799;28;20816;-40
2021/12/08 09:59:46;;;;;;;4.17;3.80;;;7.30;93.20;;;;;;5119760;28;20453;-40
2021/12/08 10:02:24;;;;;;;3.40;2.00;;;7.40;93.30;;;;;;5119521;28;20473;-41
2021/12/08 10:04:50;;;;;;;2.50;1.83;;;7.80;99.50;;;;;;5100128;28;20406;-41
2021/12/08 10:07:18;;;;;;;2.63;1.60;;;9.00;99.90;;;;;;5100078;28;21187;-40
2021/12/08 10:09:44;;;;;;;2.60;1.87;;;9.80;99.90;;;;;;5098520;28;20247;-44
2021/12/08 10:12:10;;;;;;;1.70;1.50;;;10.50;99.90;;;;;;5097831;28;20442;-41
2021/12/08 10:14:36;;;;;;;2.43;1.60;;;11.30;99.00;;;;;;5098796;28;20259;-41
2021/12/08 10:17:01;;;;;;;2.00;1.70;;;11.90;97.70;;;;;;5098646;28;20415;-40
2021/12/08 10:19:27;;;;;;;2.17;1.60;;;12.50;96.20;;;;;;5099152;28;20177;-42
2021/12/08 10:21:53;;;;;;;3.40;1.73;;;12.90;94.90;;;;;;5097382;28;20203;-42
2021/12/08 10:24:26;;;;;;;1.50;1.30;;;13.30;94.00;;;;;;5099017;28;20427;-42
2021/12/08 10:26:54;;;;;;;2.27;1.80;;;13.60;93.10;;;;;;5098213;28;20196;-42
2021/12/08 10:29:28;;;;;;;2.30;1.40;;;13.80;92.30;;;;;;5097734;28;20474;-42
2021/12/08 10:31:54;;;;;;;1.70;1.40;;;14.10;91.70;;;;;;5099137;28;20419;-42
2021/12/08 10:34:31;;;;;;;1.60;1.23;;;14.30;91.10;;;;;;5097931;28;20423;-44
2021/12/08 10:37:10;;;;;;;2.00;1.80;;;14.50;90.50;;;;;;5097292;28;20537;-41
2021/12/08 10:39:47;;;;;;;3.10;2.80;;;14.50;89.70;;;;;;5097290;28;20450;-42
2021/12/08 10:42:22;;;;;;;5.60;3.77;;;14.20;86.70;;;;;;5097239;28;20518;-43
2021/12/08 10:45:23;;;;;;;3.27;2.97;;;13.70;83.90;;;;;;5097743;28;20479;-42
2021/12/08 10:47:55;;;;;;;3.93;3.53;;;13.00;82.30;;;;;;5064173;28;20442;-42
2021/12/08 10:55:58;;;;;;;4.80;4.40;;;11.60;82.60;;;;;;5096902;28;20473;-41
2021/12/08 10:58:27;;;;;;;4.30;3.77;;;11.20;83.10;;;;;;5095969;28;20643;-42
2021/12/08 11:00:55;;;;;;;4.80;4.17;;;10.90;83.60;;;;;;5097243;28;20408;-44
2021/12/08 11:03:21;;;;;;;7.23;6.10;;;10.60;83.90;;;;;;5097109;28;20433;-42
2021/12/08 11:05:51;;;;;;;8.30;6.40;;;10.40;84.40;;;;;;5095536;28;20861;-43
2021/12/08 11:08:16;;;;;;;6.60;5.90;;;10.30;84.90;;;;;;5096228;28;20760;-42
2021/12/08 11:10:52;;;;;;;7.73;6.23;;;10.10;85.20;;;;;;5097588;28;20502;-41
2021/12/08 11:13:22;;;;;;;8.10;7.10;;;10.00;85.50;;;;;;5098265;28;20595;-42
2021/12/08 11:15:48;;;;;;;7.30;6.60;;;9.90;87.00;;;;;;5097253;28;20742;-41
2021/12/08 11:18:21;;;;;;;7.07;6.37;;;9.80;87.10;;;;;;5095846;28;20433;-41
2021/12/08 11:20:59;;;;;;;9.63;8.20;;;9.70;87.10;;;;;;5096286;28;20453;-42
2021/12/08 11:23:47;;;;;;;12.23;10.00;;;9.70;87.30;;;;;;5097040;28;20855;-40
2021/12/08 11:26:23;;;;;;;10.50;8.93;;;9.60;87.50;;;;;;5096425;28;20423;-42
2021/12/08 11:29:03;;;;;;;9.20;7.50;;;9.50;87.50;;;;;;5096671;28;20571;-42
2021/12/08 11:32:00;;;;;;;9.37;7.77;;;9.40;87.70;;;;;;5097045;28;20818;-44
2021/12/08 11:34:39;;;;;;;9.13;8.00;;;9.40;87.90;;;;;;5083242;28;20769;-42
2021/12/08 11:37:15;;;;;;;9.00;7.20;;;9.30;87.80;;;;;;5094685;28;20422;-43
2021/12/08 11:39:44;;;;;;;9.20;7.80;;;9.30;87.90;;;;;;5095291;28;20415;-43
2021/12/08 11:42:16;;;;;;;8.60;6.53;;;9.20;87.90;;;;;;5095126;28;20410;-42
2021/12/08 11:44:45;;;;;;;7.13;5.77;;;9.20;88.10;;;;;;5095205;28;20422;-43
2021/12/08 11:47:17;;;;;;;8.83;7.20;;;9.10;88.10;;;;;;5093175;28;20717;-42
2021/12/08 11:49:56;;;;;;;6.70;5.80;;;9.10;88.20;;;;;;5092919;28;20480;-42
2021/12/08 11:52:29;;;;;;;5.73;5.17;;;9.10;88.20;;;;;;5093230;28;20430;-44
2021/12/08 11:55:16;;;;;;;6.10;5.50;;;9.10;88.30;;;;;;5093847;28;20586;-42
2021/12/08 11:57:46;;;;;;;6.53;5.93;;;9.10;88.30;;;;;;5095598;28;20427;-43
2021/12/08 12:00:14;;;;;;;6.47;5.90;;;9.00;88.30;;;;;;5076892;28;20461;-43
2021/12/08 12:03:00;;;;;;;6.17;5.60;;;9.00;88.50;;;;;;5095196;28;20439;-45
2021/12/08 12:05:35;;;;;;;6.10;5.60;;;8.90;88.50;;;;;;5101956;28;20432;-43
2021/12/08 12:08:07;;;;;;;6.00;5.40;;;8.90;88.60;;;;;;5106136;28;20491;-43
2021/12/08 12:10:40;;;;;;;5.77;5.27;;;8.90;88.70;;;;;;5101885;28;20488;-42
2021/12/08 12:13:09;;;;;;;5.53;4.90;;;8.90;88.70;;;;;;5100120;28;20433;-44
2021/12/08 12:15:44;;;;;;;5.90;5.27;;;8.80;88.90;;;;;;5096570;28;20425;-42
2021/12/08 12:18:10;;;;;;;6.97;5.47;;;8.80;89.00;;;;;;5094407;28;20438;-43
2021/12/08 12:20:49;;;;;;;6.37;5.77;;;8.80;89.20;;;;;;5094946;28;20415;-45
2021/12/08 12:23:25;;;;;;;6.73;5.87;;;8.80;89.40;;;;;;5077903;28;20457;-43
2021/12/08 12:26:13;;;;;;;5.73;5.20;;;8.70;89.30;;;;;;5092944;28;20777;-44
2021/12/08 12:28:41;;;;;;;6.00;5.40;;;8.70;89.30;;;;;;5092872;28;20991;-42
2021/12/08 12:31:45;;;;;;;5.87;5.30;;;8.70;89.50;;;;;;5093315;28;20490;-43
2021/12/08 12:34:34;;;;;;;5.90;5.30;;;8.70;89.70;;;;;;5095037;28;20434;-43
2021/12/08 12:37:15;;;;;;;5.13;4.63;;;8.70;89.70;;;;;;5093883;28;20807;-42
2021/12/08 12:39:48;;;;;;;6.60;5.00;;;8.70;89.80;;;;;;5094460;28;20425;-41
2021/12/08 12:42:23;;;;;;;5.87;5.33;;;8.60;89.80;;;;;;5093829;28;20727;-43
2021/12/08 12:44:58;;;;;;;6.47;5.90;;;8.60;89.80;;;;;;5093865;28;20842;-44
2021/12/08 12:47:27;;;;;;;6.63;5.83;;;8.60;89.90;;;;;;5099062;28;20433;-42
2021/12/08 12:50:21;;;;;;;7.27;6.57;;;8.60;90.00;;;;;;5097648;28;20772;-43
2021/12/08 12:52:50;;;;;;;7.07;6.33;;;8.50;90.00;;;;;;5086585;28;20493;-43
2021/12/08 12:55:19;;;;;;;8.30;7.50;;;8.50;90.00;;;;;;5099567;28;20469;-45
2021/12/08 12:58:06;;;;;;;7.97;7.20;;;8.50;90.00;;;;;;5100812;28;20427;-41
2021/12/08 13:00:35;;;;;;;7.63;6.87;;;8.50;90.10;;;;;;5099865;28;20427;-43
2021/12/08 13:03:01;;;;;;;8.10;7.30;;;8.50;90.10;;;;;;5097606;28;20423;-45
2021/12/08 13:05:53;;;;;;;8.03;7.23;;;8.40;90.10;;;;;;5100190;28;20407;-42
2021/12/08 13:08:49;;;;;;;8.20;7.40;;;8.40;90.10;;;;;;5100256;28;20434;-42
2021/12/08 13:11:34;;;;;;;8.27;7.47;;;8.40;90.10;;;;;;5099289;28;20509;-43
2021/12/08 13:14:03;;;;;;;8.33;7.43;;;8.40;90.10;;;;;;5100062;28;20419;-44
2021/12/08 13:16:33;;;;;;;9.10;8.10;;;8.40;90.10;;;;;;5101215;28;20404;-41
2021/12/08 13:19:07;;;;;;;9.10;8.30;;;8.40;90.20;;;;;;5098981;28;20469;-43
2021/12/08 13:21:48;;;;;;;10.37;9.30;;;8.40;90.20;;;;;;5099649;28;20483;-43
2021/12/08 13:24:34;;;;;;;11.67;10.47;;;8.30;90.20;;;;;;5100712;28;20446;-45
2021/12/08 13:27:08;;;;;;;10.37;9.37;;;8.30;90.30;;;;;;5099837;28;20502;-43
2021/12/08 13:29:36;;;;;;;12.27;10.67;;;8.30;90.30;;;;;;5098110;28;20580;-43
2021/12/08 13:32:16;;;;;;;10.30;9.40;;;8.30;90.40;;;;;;5098736;28;20407;-42
2021/12/08 13:34:57;;;;;;;9.50;8.60;;;8.30;90.40;;;;;;5098252;28;20426;-43
2021/12/08 13:37:29;;;;;;;9.33;8.37;;;8.30;90.50;;;;;;5097344;28;20409;-43
2021/12/08 13:40:15;;;;;;;9.07;8.17;;;8.20;90.50;;;;;;5095927;28;20495;-43
2021/12/08 13:42:49;;;;;;;9.30;8.30;;;8.20;90.60;;;;;;5093904;28;20407;-43
2021/12/08 13:45:16;;;;;;;7.87;7.07;;;8.10;90.60;;;;;;5094635;28;20436;-44
2021/12/08 13:47:45;;;;;;;8.93;7.97;;;8.10;90.70;;;;;;5095841;28;20425;-45
2021/12/08 13:50:18;;;;;;;8.43;7.63;;;8.10;90.70;;;;;;5095913;28;20482;-42
2021/12/08 13:53:10;;;;;;;8.57;7.67;;;8.00;90.70;;;;;;5094261;28;20426;-42
2021/12/08 13:55:53;;;;;;;9.70;8.33;;;8.00;90.80;;;;;;5096256;28;20475;-43
2021/12/08 13:58:20;;;;;;;8.00;7.20;;;7.90;90.80;;;;;;5096709;28;20829;-42
2021/12/08 14:00:48;;;;;;;8.07;7.20;;;7.90;90.90;;;;;;5097467;28;20419;-45
2021/12/08 14:03:22;;;;;;;8.40;7.47;;;7.80;90.90;;;;;;5097753;28;20422;-44
2021/12/08 14:05:57;;;;;;;8.20;7.10;;;7.80;91.00;;;;;;5096805;28;20455;-41
2021/12/08 14:08:39;;;;;;;7.93;7.10;;;7.80;91.10;;;;;;5096418;28;20844;-43
2021/12/08 14:11:07;;;;;;;8.03;7.27;;;7.70;91.10;;;;;;5096039;28;20476;-44
2021/12/08 14:13:36;;;;;;;8.10;7.23;;;7.70;91.20;;;;;;5096569;28;20837;-41